sensor_id;sensor_type;location;lat;lon;timestamp;pressure;altitude;pressure_sealevel;temperature;humidity
9899;BME280;4988;49.238;6.698;2024-01-16T00:00:10;98694.00;;;-0.97;100.00
9899;BME280;4988;49.238;6.698;2024-01-16T00:02:36;98695.78;;;-1.02;100.00
9899;BME280;4988;49.238;6.698;2024-01-16T00:05:01;98697.56;;;-1.10;100.00
9899;BME280;4988;49.238;6.698;2024-01-16T00:07:28;98706.31;;;-1.14;100.00
9899;BME280;4988;49.238;6.698;2024-01-16T00:09:53;98699.34;;;-1.12;100.00
9899;BME280;4988;49.238;6.698;2024-01-16T00:12:19;98705.44;;;-1.15;100.00
9899;BME280;4988;49.238;6.698;2024-01-16T00:14:44;98700.19;;;-1.15;100.00
9899;BME280;4988;49.238;6.698;2024-01-16T00:17:10;98697.63;;;-1.19;100.00
9899;BME280;4988;49.238;6.698;2024-01-16T00:19:36;98702.00;;;-1.21;100.00
9899;BME280;4988;49.238;6.698;2024-01-16T00:22:02;98702.91;;;-1.25;100.00
9899;BME280;4988;49.238;6.698;2024-01-16T00:24:29;98697.69;;;-1.25;100.00
9899;BME280;4988;49.238;6.698;2024-01-16T00:26:54;98708.09;;;-1.19;100.00
9899;BME280;4988;49.238;6.698;2024-01-16T00:29:19;98707.13;;;-1.09;100.00
9899;BME280;4988;49.238;6.698;2024-01-16T00:31:45;98702.84;;;-1.18;100.00
9899;BME280;4988;49.238;6.698;2024-01-16T00:34:10;98711.56;;;-1.16;100.00
9899;BME280;4988;49.238;6.698;2024-01-16T00:36:36;98709.78;;;-1.14;100.00
9899;BME280;4988;49.238;6.698;2024-01-16T00:39:01;98708.88;;;-1.11;100.00
9899;BME280;4988;49.238;6.698;2024-01-16T00:41:28;98708.88;;;-1.11;100.00
9899;BME280;4988;49.238;6.698;2024-01-16T00:43:53;98710.66;;;-1.15;100.00
9899;BME280;4988;49.238;6.698;2024-01-16T00:46:18;98716.78;;;-1.16;100.00
9899;BME280;4988;49.238;6.698;2024-01-16T00:48:44;98713.25;;;-1.15;100.00
9899;BME280;4988;49.238;6.698;2024-01-16T00:51:09;98713.25;;;-1.08;100.00
9899;BME280;4988;49.238;6.698;2024-01-16T00:53:42;98709.75;;;-1.06;100.00
9899;BME280;4988;49.238;6.698;2024-01-16T00:56:08;98710.59;;;-1.02;100.00
9899;BME280;4988;49.238;6.698;2024-01-16T00:58:34;98712.31;;;-1.00;100.00
9899;BME280;4988;49.238;6.698;2024-01-16T01:00:59;98704.47;;;-0.98;100.00
9899;BME280;4988;49.238;6.698;2024-01-16T01:03:24;98712.34;;;-1.04;100.00
9899;BME280;4988;49.238;6.698;2024-01-16T01:05:50;98710.63;;;-1.10;100.00
9899;BME280;4988;49.238;6.698;2024-01-16T01:08:16;98702.81;;;-1.15;100.00
9899;BME280;4988;49.238;6.698;2024-01-16T01:10:41;98710.63;;;-1.10;100.00
9899;BME280;4988;49.238;6.698;2024-01-16T01:13:06;98713.31;;;-1.19;100.00
9899;BME280;4988;49.238;6.698;2024-01-16T01:15:32;98714.19;;;-1.23;100.00
9899;BME280;4988;49.238;6.698;2024-01-16T01:17:57;98717.66;;;-1.17;100.00
9899;BME280;4988;49.238;6.698;2024-01-16T01:20:22;98718.47;;;-1.15;100.00
9899;BME280;4988;49.238;6.698;2024-01-16T01:22:48;98716.75;;;-1.13;100.00
9899;BME280;4988;49.238;6.698;2024-01-16T01:25:13;98721.97;;;-1.09;100.00
9899;BME280;4988;49.238;6.698;2024-01-16T01:27:39;98721.91;;;-1.05;100.00
9899;BME280;4988;49.238;6.698;2024-01-16T01:30:06;98723.66;;;-1.04;100.00
9899;BME280;4988;49.238;6.698;2024-01-16T01:32:32;98725.38;;;-1.03;100.00
9899;BME280;4988;49.238;6.698;2024-01-16T01:34:58;98720.25;;;-1.12;100.00
9899;BME280;4988;49.238;6.698;2024-01-16T01:37:23;98718.50;;;-1.13;100.00
9899;BME280;4988;49.238;6.698;2024-01-16T01:39:48;98715.94;;;-1.27;100.00
9899;BME280;4988;49.238;6.698;2024-01-16T01:42:15;98709.91;;;-1.34;100.00
9899;BME280;4988;49.238;6.698;2024-01-16T01:44:40;98718.59;;;-1.33;100.00
9899;BME280;4988;49.238;6.698;2024-01-16T01:47:07;98715.13;;;-1.38;100.00
9899;BME280;4988;49.238;6.698;2024-01-16T01:49:33;98719.47;;;-1.33;100.00
9899;BME280;4988;49.238;6.698;2024-01-16T01:51:59;98712.50;;;-1.32;100.00
9899;BME280;4988;49.238;6.698;2024-01-16T01:54:25;98725.56;;;-1.31;100.00
9899;BME280;4988;49.238;6.698;2024-01-16T01:56:51;98715.09;;;-1.29;100.00
9899;BME280;4988;49.238;6.698;2024-01-16T01:59:17;98718.56;;;-1.28;100.00
9899;BME280;4988;49.238;6.698;2024-01-16T02:01:46;98721.22;;;-1.32;100.00
9899;BME280;4988;49.238;6.698;2024-01-16T02:04:17;98721.25;;;-1.38;100.00
9899;BME280;4988;49.238;6.698;2024-01-16T02:06:42;98728.25;;;-1.48;100.00
9899;BME280;4988;49.238;6.698;2024-01-16T02:09:09;98729.06;;;-1.41;100.00
9899;BME280;4988;49.238;6.698;2024-01-16T02:11:35;98729.91;;;-1.36;99.76
9899;BME280;4988;49.238;6.698;2024-01-16T02:14:00;98736.03;;;-1.43;99.24
9899;BME280;4988;49.238;6.698;2024-01-16T02:16:25;98739.53;;;-1.46;99.87
9899;BME280;4988;49.238;6.698;2024-01-16T02:18:51;98731.72;;;-1.52;100.00
9899;BME280;4988;49.238;6.698;2024-01-16T02:21:20;98736.09;;;-1.55;100.00
9899;BME280;4988;49.238;6.698;2024-01-16T02:23:46;98733.50;;;-1.63;100.00
9899;BME280;4988;49.238;6.698;2024-01-16T02:26:15;98730.06;;;-1.74;100.00
9899;BME280;4988;49.238;6.698;2024-01-16T02:28:41;98732.69;;;-1.78;100.00
9899;BME280;4988;49.238;6.698;2024-01-16T02:31:07;98729.19;;;-1.76;100.00
9899;BME280;4988;49.238;6.698;2024-01-16T02:33:33;98731.81;;;-1.83;100.00
9899;BME280;4988;49.238;6.698;2024-01-16T02:35:58;98737.94;;;-1.85;100.00
9899;BME280;4988;49.238;6.698;2024-01-16T02:38:24;98737.94;;;-1.82;100.00
9899;BME280;4988;49.238;6.698;2024-01-16T02:40:50;98739.66;;;-1.73;99.98
9899;BME280;4988;49.238;6.698;2024-01-16T02:43:15;98732.72;;;-1.82;100.00
9899;BME280;4988;49.238;6.698;2024-01-16T02:45:40;98730.13;;;-1.87;100.00
9899;BME280;4988;49.238;6.698;2024-01-16T02:48:06;98727.50;;;-1.85;100.00
9899;BME280;4988;49.238;6.698;2024-01-16T02:50:31;98724.00;;;-1.81;100.00
9899;BME280;4988;49.238;6.698;2024-01-16T02:52:56;98726.63;;;-1.87;100.00
9899;BME280;4988;49.238;6.698;2024-01-16T02:55:22;98728.38;;;-1.89;100.00
9899;BME280;4988;49.238;6.698;2024-01-16T02:57:47;98724.03;;;-1.94;100.00
9899;BME280;4988;49.238;6.698;2024-01-16T03:00:13;98725.78;;;-1.97;100.00
9899;BME280;4988;49.238;6.698;2024-01-16T03:02:39;98724.03;;;-2.00;100.00
9899;BME280;4988;49.238;6.698;2024-01-16T03:05:04;98727.53;;;-2.04;100.00
9899;BME280;4988;49.238;6.698;2024-01-16T03:07:30;98727.56;;;-2.05;100.00
9899;BME280;4988;49.238;6.698;2024-01-16T03:09:55;98734.50;;;-2.03;100.00
9899;BME280;4988;49.238;6.698;2024-01-16T03:12:21;98721.44;;;-1.98;100.00
9899;BME280;4988;49.238;6.698;2024-01-16T03:14:46;98728.41;;;-1.96;100.00
9899;BME280;4988;49.238;6.698;2024-01-16T03:17:11;98733.59;;;-1.92;100.00
9899;BME280;4988;49.238;6.698;2024-01-16T03:19:37;98733.63;;;-2.02;100.00
9899;BME280;4988;49.238;6.698;2024-01-16T03:22:02;98738.84;;;-2.05;100.00
9899;BME280;4988;49.238;6.698;2024-01-16T03:24:29;98723.19;;;-1.99;100.00
9899;BME280;4988;49.238;6.698;2024-01-16T03:26:54;98728.41;;;-2.05;100.00
9899;BME280;4988;49.238;6.698;2024-01-16T03:29:19;98736.22;;;-2.03;100.00
9899;BME280;4988;49.238;6.698;2024-01-16T03:31:45;98729.28;;;-2.03;100.00
9899;BME280;4988;49.238;6.698;2024-01-16T03:34:10;98717.97;;;-1.99;100.00
9899;BME280;4988;49.238;6.698;2024-01-16T03:36:36;98718.84;;;-1.97;100.00
9899;BME280;4988;49.238;6.698;2024-01-16T03:39:02;98716.22;;;-1.92;100.00
9899;BME280;4988;49.238;6.698;2024-01-16T03:41:28;98723.19;;;-1.96;100.00
9899;BME280;4988;49.238;6.698;2024-01-16T03:43:53;98722.31;;;-1.98;100.00
9899;BME280;4988;49.238;6.698;2024-01-16T03:46:22;98718.84;;;-1.97;100.00
9899;BME280;4988;49.238;6.698;2024-01-16T03:48:47;98721.44;;;-2.00;100.00
9899;BME280;4988;49.238;6.698;2024-01-16T03:51:12;98720.56;;;-1.94;100.00
9899;BME280;4988;49.238;6.698;2024-01-16T03:53:41;98719.72;;;-2.04;100.00
9899;BME280;4988;49.238;6.698;2024-01-16T03:56:06;98717.97;;;-2.03;100.00
9899;BME280;4988;49.238;6.698;2024-01-16T03:58:33;98718.81;;;-1.94;100.00
9899;BME280;4988;49.238;6.698;2024-01-16T04:00:58;98723.19;;;-2.05;100.00
9899;BME280;4988;49.238;6.698;2024-01-16T04:03:23;98724.94;;;-2.10;100.00
9899;BME280;4988;49.238;6.698;2024-01-16T04:05:49;98712.78;;;-2.13;100.00
9899;BME280;4988;49.238;6.698;2024-01-16T04:08:15;98710.13;;;-2.03;100.00
9899;BME280;4988;49.238;6.698;2024-01-16T04:10:40;98711.03;;;-2.07;100.00
9899;BME280;4988;49.238;6.698;2024-01-16T04:13:07;98703.22;;;-2.09;100.00
9899;BME280;4988;49.238;6.698;2024-01-16T04:15:33;98696.25;;;-2.05;100.00
9899;BME280;4988;49.238;6.698;2024-01-16T04:17:59;98699.75;;;-2.08;100.00
9899;BME280;4988;49.238;6.698;2024-01-16T04:20:24;98696.28;;;-2.07;100.00
9899;BME280;4988;49.238;6.698;2024-01-16T04:22:50;98700.59;;;-2.01;100.00
9899;BME280;4988;49.238;6.698;2024-01-16T04:25:15;98697.09;;;-2.00;100.00
9899;BME280;4988;49.238;6.698;2024-01-16T04:27:41;98694.50;;;-1.96;100.00
9899;BME280;4988;49.238;6.698;2024-01-16T04:30:07;98693.63;;;-1.99;100.00
9899;BME280;4988;49.238;6.698;2024-01-16T04:32:33;98689.28;;;-1.99;100.00
9899;BME280;4988;49.238;6.698;2024-01-16T04:34:58;98677.16;;;-2.09;100.00
9899;BME280;4988;49.238;6.698;2024-01-16T04:37:23;98684.09;;;-2.17;100.00
9899;BME280;4988;49.238;6.698;2024-01-16T04:39:49;98678.03;;;-2.16;100.00
9899;BME280;4988;49.238;6.698;2024-01-16T04:42:14;98681.53;;;-2.25;100.00
9899;BME280;4988;49.238;6.698;2024-01-16T04:44:42;98676.31;;;-2.28;100.00
9899;BME280;4988;49.238;6.698;2024-01-16T04:47:08;98680.66;;;-2.29;100.00
9899;BME280;4988;49.238;6.698;2024-01-16T04:49:33;98671.97;;;-2.21;100.00
9899;BME280;4988;49.238;6.698;2024-01-16T04:51:58;98677.13;;;-2.12;100.00
9899;BME280;4988;49.238;6.698;2024-01-16T04:54:24;98674.56;;;-2.26;100.00
9899;BME280;4988;49.238;6.698;2024-01-16T04:56:49;98668.50;;;-2.33;100.00
9899;BME280;4988;49.238;6.698;2024-01-16T04:59:14;98674.59;;;-2.34;100.00
9899;BME280;4988;49.238;6.698;2024-01-16T05:01:39;98669.38;;;-2.42;100.00
9899;BME280;4988;49.238;6.698;2024-01-16T05:04:05;98671.13;;;-2.44;100.00
9899;BME280;4988;49.238;6.698;2024-01-16T05:06:33;98666.78;;;-2.48;100.00
9899;BME280;4988;49.238;6.698;2024-01-16T05:08:58;98661.59;;;-2.46;100.00
9899;BME280;4988;49.238;6.698;2024-01-16T05:11:23;98654.59;;;-2.38;100.00
9899;BME280;4988;49.238;6.698;2024-01-16T05:13:49;98648.56;;;-2.52;100.00
9899;BME280;4988;49.238;6.698;2024-01-16T05:16:14;98655.50;;;-2.58;100.00
9899;BME280;4988;49.238;6.698;2024-01-16T05:18:42;98650.31;;;-2.67;100.00
9899;BME280;4988;49.238;6.698;2024-01-16T05:21:08;98651.19;;;-2.74;100.00
9899;BME280;4988;49.238;6.698;2024-01-16T05:23:33;98642.50;;;-2.73;100.00
9899;BME280;4988;49.238;6.698;2024-01-16T05:25:58;98652.03;;;-2.80;100.00
9899;BME280;4988;49.238;6.698;2024-01-16T05:28:24;98653.81;;;-2.77;100.00
9899;BME280;4988;49.238;6.698;2024-01-16T05:30:49;98645.09;;;-2.76;100.00
9899;BME280;4988;49.238;6.698;2024-01-16T05:33:14;98644.22;;;-2.81;100.00
9899;BME280;4988;49.238;6.698;2024-01-16T05:35:40;98644.25;;;-2.84;100.00
9899;BME280;4988;49.238;6.698;2024-01-16T05:38:05;98639.91;;;-2.85;100.00
9899;BME280;4988;49.238;6.698;2024-01-16T05:40:31;98636.41;;;-2.92;100.00
9899;BME280;4988;49.238;6.698;2024-01-16T05:42:57;98633.81;;;-2.87;100.00
9899;BME280;4988;49.238;6.698;2024-01-16T05:45:22;98639.03;;;-2.97;100.00
9899;BME280;4988;49.238;6.698;2024-01-16T05:47:47;98642.50;;;-3.01;100.00
9899;BME280;4988;49.238;6.698;2024-01-16T05:50:13;98644.25;;;-3.03;100.00
9899;BME280;4988;49.238;6.698;2024-01-16T05:52:38;98643.34;;;-3.02;100.00
9899;BME280;4988;49.238;6.698;2024-01-16T05:55:06;98638.16;;;-2.94;100.00
9899;BME280;4988;49.238;6.698;2024-01-16T05:57:31;98640.75;;;-3.03;100.00
9899;BME280;4988;49.238;6.698;2024-01-16T05:59:58;98640.75;;;-3.05;100.00
9899;BME280;4988;49.238;6.698;2024-01-16T06:02:23;98639.03;;;-3.09;100.00
9899;BME280;4988;49.238;6.698;2024-01-16T06:04:49;98643.38;;;-3.19;100.00
9899;BME280;4988;49.238;6.698;2024-01-16T06:07:14;98645.94;;;-3.20;100.00
9899;BME280;4988;49.238;6.698;2024-01-16T06:09:40;98643.34;;;-3.16;100.00
9899;BME280;4988;49.238;6.698;2024-01-16T06:12:06;98634.66;;;-3.19;100.00
9899;BME280;4988;49.238;6.698;2024-01-16T06:14:32;98638.13;;;-3.22;100.00
9899;BME280;4988;49.238;6.698;2024-01-16T06:16:58;98642.50;;;-3.22;100.00
9899;BME280;4988;49.238;6.698;2024-01-16T06:19:23;98629.47;;;-3.26;100.00
9899;BME280;4988;49.238;6.698;2024-01-16T06:21:48;98629.44;;;-3.38;100.00
9899;BME280;4988;49.238;6.698;2024-01-16T06:24:14;98625.97;;;-3.45;100.00
9899;BME280;4988;49.238;6.698;2024-01-16T06:26:39;98625.97;;;-3.42;100.00
9899;BME280;4988;49.238;6.698;2024-01-16T06:29:04;98620.75;;;-3.42;100.00
9899;BME280;4988;49.238;6.698;2024-01-16T06:31:30;98618.19;;;-3.37;100.00
9899;BME280;4988;49.238;6.698;2024-01-16T06:33:55;98622.50;;;-3.39;100.00
9899;BME280;4988;49.238;6.698;2024-01-16T06:36:21;98615.56;;;-3.42;100.00
9899;BME280;4988;49.238;6.698;2024-01-16T06:38:46;98614.69;;;-3.48;100.00
9899;BME280;4988;49.238;6.698;2024-01-16T06:41:11;98619.88;;;-3.45;100.00
9899;BME280;4988;49.238;6.698;2024-01-16T06:43:37;98619.03;;;-3.47;100.00
9899;BME280;4988;49.238;6.698;2024-01-16T06:46:02;98611.19;;;-3.60;100.00
9899;BME280;4988;49.238;6.698;2024-01-16T06:48:28;98610.28;;;-3.79;100.00
9899;BME280;4988;49.238;6.698;2024-01-16T06:50:53;98608.56;;;-3.77;100.00
9899;BME280;4988;49.238;6.698;2024-01-16T06:53:18;98608.59;;;-3.63;100.00
9899;BME280;4988;49.238;6.698;2024-01-16T06:55:43;98610.34;;;-3.57;100.00
9899;BME280;4988;49.238;6.698;2024-01-16T06:58:09;98607.72;;;-3.62;100.00
9899;BME280;4988;49.238;6.698;2024-01-16T07:00:35;98614.63;;;-3.68;100.00
9899;BME280;4988;49.238;6.698;2024-01-16T07:03:00;98613.78;;;-3.61;100.00
9899;BME280;4988;49.238;6.698;2024-01-16T07:05:26;98618.13;;;-3.68;100.00
9899;BME280;4988;49.238;6.698;2024-01-16T07:07:51;98629.38;;;-3.75;100.00
9899;BME280;4988;49.238;6.698;2024-01-16T07:10:16;98631.94;;;-3.78;100.00
9899;BME280;4988;49.238;6.698;2024-01-16T07:12:47;98632.81;;;-3.85;100.00
9899;BME280;4988;49.238;6.698;2024-01-16T07:15:14;98631.03;;;-3.96;100.00
9899;BME280;4988;49.238;6.698;2024-01-16T07:17:40;98642.31;;;-3.94;100.00
9899;BME280;4988;49.238;6.698;2024-01-16T07:20:06;98633.63;;;-3.90;100.00
9899;BME280;4988;49.238;6.698;2024-01-16T07:22:32;98640.59;;;-3.92;100.00
9899;BME280;4988;49.238;6.698;2024-01-16T07:24:59;98639.69;;;-3.94;100.00
9899;BME280;4988;49.238;6.698;2024-01-16T07:27:24;98644.88;;;-4.00;100.00
9899;BME280;4988;49.238;6.698;2024-01-16T07:29:49;98651.81;;;-3.96;100.00
9899;BME280;4988;49.238;6.698;2024-01-16T07:32:14;98646.59;;;-4.02;100.00
9899;BME280;4988;49.238;6.698;2024-01-16T07:34:40;98649.09;;;-4.22;100.00
9899;BME280;4988;49.238;6.698;2024-01-16T07:37:05;98648.16;;;-4.37;100.00
9899;BME280;4988;49.238;6.698;2024-01-16T07:39:30;98650.59;;;-4.60;100.00
9899;BME280;4988;49.238;6.698;2024-01-16T07:41:56;98656.66;;;-4.64;100.00
9899;BME280;4988;49.238;6.698;2024-01-16T07:44:21;98662.59;;;-4.77;100.00
9899;BME280;4988;49.238;6.698;2024-01-16T07:46:47;98665.94;;;-4.91;100.00
9899;BME280;4988;49.238;6.698;2024-01-16T07:49:12;98665.94;;;-4.94;100.00
9899;BME280;4988;49.238;6.698;2024-01-16T07:51:37;98661.63;;;-4.92;100.00
9899;BME280;4988;49.238;6.698;2024-01-16T07:54:07;98673.84;;;-4.78;100.00
9899;BME280;4988;49.238;6.698;2024-01-16T07:56:34;98670.47;;;-4.63;100.00
9899;BME280;4988;49.238;6.698;2024-01-16T07:58:59;98672.28;;;-4.55;100.00
9899;BME280;4988;49.238;6.698;2024-01-16T08:01:24;98678.41;;;-4.46;100.00
9899;BME280;4988;49.238;6.698;2024-01-16T08:03:50;98681.06;;;-4.32;100.00
9899;BME280;4988;49.238;6.698;2024-01-16T08:06:15;98670.75;;;-4.22;100.00
9899;BME280;4988;49.238;6.698;2024-01-16T08:08:40;98682.00;;;-4.27;100.00
9899;BME280;4988;49.238;6.698;2024-01-16T08:11:06;98671.59;;;-4.23;100.00
9899;BME280;4988;49.238;6.698;2024-01-16T08:13:32;98672.47;;;-4.27;100.00
9899;BME280;4988;49.238;6.698;2024-01-16T08:15:58;98677.72;;;-4.17;100.00
9899;BME280;4988;49.238;6.698;2024-01-16T08:18:23;98678.56;;;-4.18;100.00
9899;BME280;4988;49.238;6.698;2024-01-16T08:20:48;98680.31;;;-4.17;100.00
9899;BME280;4988;49.238;6.698;2024-01-16T08:23:13;98674.22;;;-4.21;100.00
9899;BME280;4988;49.238;6.698;2024-01-16T08:25:39;98682.81;;;-4.31;100.00
9899;BME280;4988;49.238;6.698;2024-01-16T08:28:04;98679.41;;;-4.26;100.00
9899;BME280;4988;49.238;6.698;2024-01-16T08:30:30;98681.97;;;-4.32;100.00
9899;BME280;4988;49.238;6.698;2024-01-16T08:32:55;98680.25;;;-4.28;100.00
9899;BME280;4988;49.238;6.698;2024-01-16T08:35:20;98682.84;;;-4.30;100.00
9899;BME280;4988;49.238;6.698;2024-01-16T08:37:47;98672.47;;;-4.30;100.00
9899;BME280;4988;49.238;6.698;2024-01-16T08:40:12;98681.03;;;-4.40;100.00
9899;BME280;4988;49.238;6.698;2024-01-16T08:42:37;98674.91;;;-4.48;100.00
9899;BME280;4988;49.238;6.698;2024-01-16T08:45:03;98674.00;;;-4.54;100.00
9899;BME280;4988;49.238;6.698;2024-01-16T08:47:30;98681.75;;;-4.61;100.00
9899;BME280;4988;49.238;6.698;2024-01-16T08:49:55;98681.75;;;-4.63;100.00
9899;BME280;4988;49.238;6.698;2024-01-16T08:52:21;98686.97;;;-4.60;100.00
9899;BME280;4988;49.238;6.698;2024-01-16T08:54:46;98682.69;;;-4.53;100.00
9899;BME280;4988;49.238;6.698;2024-01-16T08:57:13;98685.34;;;-4.42;100.00
9899;BME280;4988;49.238;6.698;2024-01-16T08:59:40;98681.97;;;-4.32;100.00
9899;BME280;4988;49.238;6.698;2024-01-16T09:02:05;98679.47;;;-4.13;100.00
9899;BME280;4988;49.238;6.698;2024-01-16T09:04:30;98680.41;;;-3.99;100.00
9899;BME280;4988;49.238;6.698;2024-01-16T09:06:56;98677.88;;;-3.83;100.00
9899;BME280;4988;49.238;6.698;2024-01-16T09:09:21;98682.28;;;-3.67;100.00
9899;BME280;4988;49.238;6.698;2024-01-16T09:11:46;98676.25;;;-3.52;100.00
9899;BME280;4988;49.238;6.698;2024-01-16T09:14:12;98668.47;;;-3.38;100.00
9899;BME280;4988;49.238;6.698;2024-01-16T09:16:37;98668.50;;;-3.32;100.00
9899;BME280;4988;49.238;6.698;2024-01-16T09:19:02;98670.25;;;-3.20;100.00
9899;BME280;4988;49.238;6.698;2024-01-16T09:21:28;98668.53;;;-3.04;100.00
9899;BME280;4988;49.238;6.698;2024-01-16T09:23:53;98673.75;;;-3.01;100.00
9899;BME280;4988;49.238;6.698;2024-01-16T09:26:19;98678.97;;;-2.98;100.00
9899;BME280;4988;49.238;6.698;2024-01-16T09:28:44;98672.00;;;-2.89;100.00
9899;BME280;4988;49.238;6.698;2024-01-16T09:31:09;98669.41;;;-2.86;100.00
9899;BME280;4988;49.238;6.698;2024-01-16T09:33:35;98655.53;;;-2.81;100.00
9899;BME280;4988;49.238;6.698;2024-01-16T09:36:00;98652.91;;;-2.76;100.00
9899;BME280;4988;49.238;6.698;2024-01-16T09:38:25;98645.09;;;-2.73;100.00
9899;BME280;4988;49.238;6.698;2024-01-16T09:40:51;98645.97;;;-2.65;100.00
9899;BME280;4988;49.238;6.698;2024-01-16T09:43:18;98634.69;;;-2.62;100.00
9899;BME280;4988;49.238;6.698;2024-01-16T09:45:44;98639.00;;;-2.56;100.00
9899;BME280;4988;49.238;6.698;2024-01-16T09:48:10;98638.13;;;-2.49;100.00
9899;BME280;4988;49.238;6.698;2024-01-16T09:50:37;98627.69;;;-2.43;100.00
9899;BME280;4988;49.238;6.698;2024-01-16T09:53:05;98633.78;;;-2.41;100.00
9899;BME280;4988;49.238;6.698;2024-01-16T09:55:30;98629.41;;;-2.36;100.00
9899;BME280;4988;49.238;6.698;2024-01-16T09:57:57;98627.66;;;-2.28;100.00
9899;BME280;4988;49.238;6.698;2024-01-16T10:00:24;98626.78;;;-2.30;100.00
9899;BME280;4988;49.238;6.698;2024-01-16T10:02:50;98627.63;;;-2.29;100.00
9899;BME280;4988;49.238;6.698;2024-01-16T10:05:16;98634.59;;;-2.19;100.00
9899;BME280;4988;49.238;6.698;2024-01-16T10:07:42;98634.53;;;-2.05;100.00
9899;BME280;4988;49.238;6.698;2024-01-16T10:10:11;98632.75;;;-1.97;100.00
9899;BME280;4988;49.238;6.698;2024-01-16T10:12:38;98621.44;;;-1.89;100.00
9899;BME280;4988;49.238;6.698;2024-01-16T10:15:07;98625.78;;;-1.90;100.00
9899;BME280;4988;49.238;6.698;2024-01-16T10:17:41;98632.69;;;-1.81;100.00
9899;BME280;4988;49.238;6.698;2024-01-16T10:20:08;98631.81;;;-1.80;99.81
9899;BME280;4988;49.238;6.698;2024-01-16T10:22:39;98620.47;;;-1.73;99.36
9899;BME280;4988;49.238;6.698;2024-01-16T10:25:06;98619.53;;;-1.59;98.94
9899;BME280;4988;49.238;6.698;2024-01-16T10:27:33;98626.41;;;-1.43;97.85
9899;BME280;4988;49.238;6.698;2024-01-16T10:29:59;98618.53;;;-1.34;96.77
9899;BME280;4988;49.238;6.698;2024-01-16T10:32:43;98614.13;;;-1.28;96.16
9899;BME280;4988;49.238;6.698;2024-01-16T10:35:10;98610.59;;;-1.21;96.36
9899;BME280;4988;49.238;6.698;2024-01-16T10:40:08;98600.03;;;-1.04;95.34
9899;BME280;4988;49.238;6.698;2024-01-16T10:42:33;98593.91;;;-1.02;95.51
9899;BME280;4988;49.238;6.698;2024-01-16T10:44:59;98590.41;;;-0.99;95.65
9899;BME280;4988;49.238;6.698;2024-01-16T10:47:24;98587.88;;;-1.07;94.68
9899;BME280;4988;49.238;6.698;2024-01-16T10:49:50;98587.84;;;-1.05;94.97
9899;BME280;4988;49.238;6.698;2024-01-16T10:52:17;98581.72;;;-1.00;94.90
9899;BME280;4988;49.238;6.698;2024-01-16T10:54:43;98571.22;;;-0.93;94.97
9899;BME280;4988;49.238;6.698;2024-01-16T10:57:13;98575.34;;;-0.71;94.49
9899;BME280;4988;49.238;6.698;2024-01-16T10:59:52;98578.84;;;-0.70;93.93
9899;BME280;4988;49.238;6.698;2024-01-16T11:02:24;98582.25;;;-0.67;93.73
9899;BME280;4988;49.238;6.698;2024-01-16T11:04:54;98582.25;;;-0.63;93.75
9899;BME280;4988;49.238;6.698;2024-01-16T11:07:21;98590.03;;;-0.60;93.69
9899;BME280;4988;49.238;6.698;2024-01-16T11:09:48;98585.66;;;-0.55;93.84
9899;BME280;4988;49.238;6.698;2024-01-16T11:12:14;98587.41;;;-0.54;93.48
9899;BME280;4988;49.238;6.698;2024-01-16T11:14:42;98582.16;;;-0.54;93.43
9899;BME280;4988;49.238;6.698;2024-01-16T11:17:09;98583.84;;;-0.49;93.53
9899;BME280;4988;49.238;6.698;2024-01-16T11:19:42;98579.41;;;-0.42;93.27
9899;BME280;4988;49.238;6.698;2024-01-16T11:22:08;98566.28;;;-0.36;92.87
9899;BME280;4988;49.238;6.698;2024-01-16T11:24:33;98579.31;;;-0.34;92.83
9899;BME280;4988;49.238;6.698;2024-01-16T11:26:58;98574.91;;;-0.29;92.10
9899;BME280;4988;49.238;6.698;2024-01-16T11:31:53;98552.03;;;-0.13;92.28
9899;BME280;4988;49.238;6.698;2024-01-16T11:37:07;98553.72;;;-0.09;91.48
9899;BME280;4988;49.238;6.698;2024-01-16T11:39:33;98550.22;;;-0.08;91.15
9899;BME280;4988;49.238;6.698;2024-01-16T11:41:59;98545.88;;;-0.09;90.51
9899;BME280;4988;49.238;6.698;2024-01-16T11:44:49;98533.72;;;-0.10;89.78
9899;BME280;4988;49.238;6.698;2024-01-16T11:47:23;98538.97;;;-0.13;89.76
9899;BME280;4988;49.238;6.698;2024-01-16T11:49:51;98531.19;;;-0.16;89.77
9899;BME280;4988;49.238;6.698;2024-01-16T11:52:39;98535.44;;;-0.10;89.52
9899;BME280;4988;49.238;6.698;2024-01-16T11:55:34;98524.97;;;-0.07;89.77
9899;BME280;4988;49.238;6.698;2024-01-16T12:03:18;98524.78;;;0.04;89.43
9899;BME280;4988;49.238;6.698;2024-01-16T12:05:57;98516.75;;;0.16;88.48
9899;BME280;4988;49.238;6.698;2024-01-16T12:08:23;98514.09;;;0.22;86.68
9899;BME280;4988;49.238;6.698;2024-01-16T12:10:48;98505.31;;;0.23;85.96
9899;BME280;4988;49.238;6.698;2024-01-16T12:13:14;98499.13;;;0.30;85.49
9899;BME280;4988;49.238;6.698;2024-01-16T12:15:39;98488.66;;;0.30;82.67
9899;BME280;4988;49.238;6.698;2024-01-16T12:18:05;98491.22;;;0.34;80.37
9899;BME280;4988;49.238;6.698;2024-01-16T12:20:32;98485.84;;;0.44;81.37
9899;BME280;4988;49.238;6.698;2024-01-16T12:23:05;98480.44;;;0.54;77.42
9899;BME280;4988;49.238;6.698;2024-01-16T12:25:33;98478.84;;;0.45;73.23
9899;BME280;4988;49.238;6.698;2024-01-16T12:30:29;98477.84;;;0.52;73.80
9899;BME280;4988;49.238;6.698;2024-01-16T12:33:08;98475.06;;;0.61;71.67
9899;BME280;4988;49.238;6.698;2024-01-16T12:35:38;98466.25;;;0.67;70.72
9899;BME280;4988;49.238;6.698;2024-01-16T12:38:07;98468.31;;;0.46;70.77
9899;BME280;4988;49.238;6.698;2024-01-16T12:40:36;98475.31;;;0.46;72.55
9899;BME280;4988;49.238;6.698;2024-01-16T12:43:03;98477.97;;;0.43;71.81
9899;BME280;4988;49.238;6.698;2024-01-16T12:45:29;98472.78;;;0.41;71.52
9899;BME280;4988;49.238;6.698;2024-01-16T12:47:56;98462.16;;;0.49;73.24
9899;BME280;4988;49.238;6.698;2024-01-16T12:50:26;98460.44;;;0.48;72.39
9899;BME280;4988;49.238;6.698;2024-01-16T12:53:11;98459.56;;;0.49;73.10
9899;BME280;4988;49.238;6.698;2024-01-16T12:55:38;98456.91;;;0.52;73.02
9899;BME280;4988;49.238;6.698;2024-01-16T12:58:21;98453.44;;;0.50;71.91
9899;BME280;4988;49.238;6.698;2024-01-16T13:00:50;98449.13;;;0.47;73.06
9899;BME280;4988;49.238;6.698;2024-01-16T13:03:20;98438.63;;;0.47;71.85
9899;BME280;4988;49.238;6.698;2024-01-16T13:05:54;98435.94;;;0.52;70.60
9899;BME280;4988;49.238;6.698;2024-01-16T13:08:20;98428.84;;;0.59;70.94
9899;BME280;4988;49.238;6.698;2024-01-16T13:10:46;98445.53;;;0.52;71.01
9899;BME280;4988;49.238;6.698;2024-01-16T13:15:42;98443.03;;;0.47;71.37
9899;BME280;4988;49.238;6.698;2024-01-16T13:18:22;98431.63;;;0.48;70.88
9899;BME280;4988;49.238;6.698;2024-01-16T13:20:52;98435.88;;;0.55;71.36
9899;BME280;4988;49.238;6.698;2024-01-16T13:23:19;98426.31;;;0.53;71.39
9899;BME280;4988;49.238;6.698;2024-01-16T13:25:46;98427.19;;;0.55;71.33
9899;BME280;4988;49.238;6.698;2024-01-16T13:28:16;98423.69;;;0.54;70.01